sensor_id;sensor_type;location;lat;lon;timestamp;pressure;altitude;pressure_sealevel;temperature;humidity
79236;BME280;69062;47.460;18.812;2023-11-19T00:01:02;100827.28;;;0.55;82.78
79236;BME280;69062;47.460;18.812;2023-11-19T00:02:08;100829.03;;;0.62;82.58
79236;BME280;69062;47.460;18.812;2023-11-19T00:03:11;100824.72;;;0.69;82.75
79236;BME280;69062;47.460;18.812;2023-11-19T00:04:15;100822.13;;;0.69;82.62
79236;BME280;69062;47.460;18.812;2023-11-19T00:05:18;100817.78;;;0.69;82.46
79236;BME280;69062;47.460;18.812;2023-11-19T00:06:21;100811.72;;;0.66;82.87
79236;BME280;69062;47.460;18.812;2023-11-19T00:07:24;100805.66;;;0.65;82.41
79236;BME280;69062;47.460;18.812;2023-11-19T00:08:37;100799.59;;;0.71;82.49
79236;BME280;69062;47.460;18.812;2023-11-19T00:09:40;100807.38;;;0.71;82.59
79236;BME280;69062;47.460;18.812;2023-11-19T00:10:42;100804.81;;;0.75;82.19
79236;BME280;69062;47.460;18.812;2023-11-19T00:11:45;100806.53;;;0.76;82.21
79236;BME280;69062;47.460;18.812;2023-11-19T00:12:56;100807.38;;;0.77;82.08
79236;BME280;69062;47.460;18.812;2023-11-19T00:13:59;100810.00;;;0.75;82.30
79236;BME280;69062;47.460;18.812;2023-11-19T00:15:02;100815.16;;;0.72;82.35
79236;BME280;69062;47.460;18.812;2023-11-19T00:16:05;100812.59;;;0.69;82.57
79236;BME280;69062;47.460;18.812;2023-11-19T00:17:09;100817.78;;;0.71;82.97
79236;BME280;69062;47.460;18.812;2023-11-19T00:18:12;100817.81;;;0.81;82.94
79236;BME280;69062;47.460;18.812;2023-11-19T00:19:16;100816.06;;;0.88;82.15
79236;BME280;69062;47.460;18.812;2023-11-19T00:20:20;100824.75;;;0.89;81.57
79236;BME280;69062;47.460;18.812;2023-11-19T00:21:24;100817.81;;;0.95;80.81
79236;BME280;69062;47.460;18.812;2023-11-19T00:22:31;100819.53;;;0.99;80.52
79236;BME280;69062;47.460;18.812;2023-11-19T00:23:34;100820.41;;;1.00;79.81
79236;BME280;69062;47.460;18.812;2023-11-19T00:24:36;100819.53;;;0.98;79.96
79236;BME280;69062;47.460;18.812;2023-11-19T00:25:39;100817.81;;;0.95;80.08
79236;BME280;69062;47.460;18.812;2023-11-19T00:26:42;100823.00;;;0.88;80.58
79236;BME280;69062;47.460;18.812;2023-11-19T00:27:45;100827.31;;;0.84;80.60
79236;BME280;69062;47.460;18.812;2023-11-19T00:28:48;100816.94;;;0.87;80.77
79236;BME280;69062;47.460;18.812;2023-11-19T00:29:51;100829.06;;;0.90;80.98
79236;BME280;69062;47.460;18.812;2023-11-19T00:30:54;100832.53;;;0.93;81.09
79236;BME280;69062;47.460;18.812;2023-11-19T00:31:57;100826.47;;;0.88;81.65
79236;BME280;69062;47.460;18.812;2023-11-19T00:32:59;100829.06;;;0.82;81.76
79236;BME280;69062;47.460;18.812;2023-11-19T00:34:02;100819.53;;;0.76;82.11
79236;BME280;69062;47.460;18.812;2023-11-19T00:35:06;100819.53;;;0.73;82.33
79236;BME280;69062;47.460;18.812;2023-11-19T00:36:09;100813.47;;;0.77;82.57
79236;BME280;69062;47.460;18.812;2023-11-19T00:37:12;100813.47;;;0.80;82.22
79236;BME280;69062;47.460;18.812;2023-11-19T00:38:15;100815.19;;;0.85;82.22
79236;BME280;69062;47.460;18.812;2023-11-19T00:39:18;100810.00;;;0.85;82.05
79236;BME280;69062;47.460;18.812;2023-11-19T00:40:22;100802.22;;;0.80;82.72
79236;BME280;69062;47.460;18.812;2023-11-19T00:41:25;100803.06;;;0.77;82.91
79236;BME280;69062;47.460;18.812;2023-11-19T00:42:28;100804.81;;;0.81;82.38
79236;BME280;69062;47.460;18.812;2023-11-19T00:43:31;100810.84;;;0.87;82.59
79236;BME280;69062;47.460;18.812;2023-11-19T00:44:34;100803.94;;;0.96;82.38
79236;BME280;69062;47.460;18.812;2023-11-19T00:45:36;100805.66;;;1.00;82.08
79236;BME280;69062;47.460;18.812;2023-11-19T00:46:39;100803.09;;;1.02;81.48
79236;BME280;69062;47.460;18.812;2023-11-19T00:47:43;100801.31;;;0.93;82.14
79236;BME280;69062;47.460;18.812;2023-11-19T00:48:45;100805.66;;;0.93;81.98
79236;BME280;69062;47.460;18.812;2023-11-19T00:49:49;100812.59;;;0.92;81.94
79236;BME280;69062;47.460;18.812;2023-11-19T00:50:52;100806.53;;;0.99;81.98
79236;BME280;69062;47.460;18.812;2023-11-19T00:51:55;100804.81;;;0.95;81.81
79236;BME280;69062;47.460;18.812;2023-11-19T00:52:58;100803.06;;;0.91;81.87
79236;BME280;69062;47.460;18.812;2023-11-19T00:54:00;100805.69;;;0.88;82.13
79236;BME280;69062;47.460;18.812;2023-11-19T00:55:04;100806.53;;;0.84;82.28
79236;BME280;69062;47.460;18.812;2023-11-19T00:56:07;100803.06;;;0.83;82.21
79236;BME280;69062;47.460;18.812;2023-11-19T00:57:10;100799.59;;;0.81;82.42
79236;BME280;69062;47.460;18.812;2023-11-19T00:58:13;100799.63;;;0.80;82.30
79236;BME280;69062;47.460;18.812;2023-11-19T00:59:15;100788.31;;;0.79;82.44
79236;BME280;69062;47.460;18.812;2023-11-19T01:00:18;100790.94;;;0.84;82.72
79236;BME280;69062;47.460;18.812;2023-11-19T01:01:22;100791.81;;;0.81;82.61
79236;BME280;69062;47.460;18.812;2023-11-19T01:02:25;100797.00;;;0.88;82.35
79236;BME280;69062;47.460;18.812;2023-11-19T01:03:28;100793.53;;;0.96;81.87
79236;BME280;69062;47.460;18.812;2023-11-19T01:04:35;100796.16;;;0.96;81.71
79236;BME280;69062;47.460;18.812;2023-11-19T01:05:38;100801.34;;;0.95;81.61
79236;BME280;69062;47.460;18.812;2023-11-19T01:06:41;100807.41;;;0.95;81.57
79236;BME280;69062;47.460;18.812;2023-11-19T01:07:48;100803.06;;;0.91;81.54
79236;BME280;69062;47.460;18.812;2023-11-19T01:08:50;100802.19;;;0.78;81.79
79236;BME280;69062;47.460;18.812;2023-11-19T01:09:55;100803.94;;;0.75;82.26
79236;BME280;69062;47.460;18.812;2023-11-19T01:10:58;100797.00;;;0.78;82.45
79236;BME280;69062;47.460;18.812;2023-11-19T01:12:04;100795.25;;;0.85;82.38
79236;BME280;69062;47.460;18.812;2023-11-19T01:13:06;100803.06;;;0.91;82.12
79236;BME280;69062;47.460;18.812;2023-11-19T01:14:09;100798.72;;;0.93;82.28
79236;BME280;69062;47.460;18.812;2023-11-19T01:15:12;100806.53;;;0.92;82.10
79236;BME280;69062;47.460;18.812;2023-11-19T01:16:15;100799.59;;;0.86;82.32
79236;BME280;69062;47.460;18.812;2023-11-19T01:17:18;100797.88;;;0.82;82.17
79236;BME280;69062;47.460;18.812;2023-11-19T01:18:21;100805.69;;;0.80;82.39
79236;BME280;69062;47.460;18.812;2023-11-19T01:19:24;100796.13;;;0.76;82.27
79236;BME280;69062;47.460;18.812;2023-11-19T01:20:27;100797.88;;;0.73;82.60
79236;BME280;69062;47.460;18.812;2023-11-19T01:21:31;100789.19;;;0.69;82.55
79236;BME280;69062;47.460;18.812;2023-11-19T01:22:33;100795.25;;;0.71;82.56
79236;BME280;69062;47.460;18.812;2023-11-19T01:23:36;100791.78;;;0.72;82.74
79236;BME280;69062;47.460;18.812;2023-11-19T01:24:39;100790.94;;;0.76;82.63
79236;BME280;69062;47.460;18.812;2023-11-19T01:25:42;100787.47;;;0.80;82.62
79236;BME280;69062;47.460;18.812;2023-11-19T01:26:45;100791.81;;;0.83;82.40
79236;BME280;69062;47.460;18.812;2023-11-19T01:27:49;100795.25;;;0.87;82.31
79236;BME280;69062;47.460;18.812;2023-11-19T01:28:53;100796.16;;;0.89;82.87
79236;BME280;69062;47.460;18.812;2023-11-19T01:29:55;100797.00;;;0.95;82.79
79236;BME280;69062;47.460;18.812;2023-11-19T01:30:58;100796.13;;;0.98;82.29
79236;BME280;69062;47.460;18.812;2023-11-19T01:32:01;100801.34;;;0.96;82.03
79236;BME280;69062;47.460;18.812;2023-11-19T01:33:04;100783.16;;;0.87;82.27
79236;BME280;69062;47.460;18.812;2023-11-19T01:34:06;100787.47;;;0.85;82.42
79236;BME280;69062;47.460;18.812;2023-11-19T01:35:09;100782.25;;;0.83;82.67
79236;BME280;69062;47.460;18.812;2023-11-19T01:36:15;100779.69;;;0.82;82.51
79236;BME280;69062;47.460;18.812;2023-11-19T01:37:18;100782.28;;;0.82;82.34
79236;BME280;69062;47.460;18.812;2023-11-19T01:38:20;100774.47;;;0.79;82.38
79236;BME280;69062;47.460;18.812;2023-11-19T01:39:23;100778.78;;;0.78;82.70
79236;BME280;69062;47.460;18.812;2023-11-19T01:40:26;100784.00;;;0.75;82.67
79236;BME280;69062;47.460;18.812;2023-11-19T01:41:29;100787.47;;;0.76;82.53
79236;BME280;69062;47.460;18.812;2023-11-19T01:42:39;100784.00;;;0.74;82.68
79236;BME280;69062;47.460;18.812;2023-11-19T01:43:42;100774.47;;;0.76;82.86
79236;BME280;69062;47.460;18.812;2023-11-19T01:44:56;100780.53;;;0.79;82.67
79236;BME280;69062;47.460;18.812;2023-11-19T01:46:01;100781.38;;;0.86;82.38
79236;BME280;69062;47.460;18.812;2023-11-19T01:47:04;100772.72;;;0.84;82.62
79236;BME280;69062;47.460;18.812;2023-11-19T01:48:08;100772.75;;;0.90;82.55
79236;BME280;69062;47.460;18.812;2023-11-19T01:49:15;100772.72;;;0.98;82.19
79236;BME280;69062;47.460;18.812;2023-11-19T01:50:18;100771.84;;;1.00;82.33
79236;BME280;69062;47.460;18.812;2023-11-19T01:51:22;100770.13;;;0.99;82.07
79236;BME280;69062;47.460;18.812;2023-11-19T01:52:25;100759.72;;;1.01;81.51
79236;BME280;69062;47.460;18.812;2023-11-19T01:53:28;100755.41;;;0.95;81.65
79236;BME280;69062;47.460;18.812;2023-11-19T01:54:31;100752.81;;;0.88;81.84
79236;BME280;69062;47.460;18.812;2023-11-19T01:55:35;100754.53;;;0.84;81.82
79236;BME280;69062;47.460;18.812;2023-11-19T01:56:40;100752.81;;;0.81;81.67
79236;BME280;69062;47.460;18.812;2023-11-19T01:57:44;100752.78;;;0.78;81.96
79236;BME280;69062;47.460;18.812;2023-11-19T01:58:48;100750.22;;;0.75;81.60
79236;BME280;69062;47.460;18.812;2023-11-19T01:59:53;100754.56;;;0.73;81.85
79236;BME280;69062;47.460;18.812;2023-11-19T02:00:57;100742.41;;;0.72;82.06
79236;BME280;69062;47.460;18.812;2023-11-19T02:02:00;100742.41;;;0.69;82.19
79236;BME280;69062;47.460;18.812;2023-11-19T02:03:05;100743.28;;;0.74;82.22
79236;BME280;69062;47.460;18.812;2023-11-19T02:04:11;100743.28;;;0.80;82.29
79236;BME280;69062;47.460;18.812;2023-11-19T02:05:15;100741.53;;;0.79;82.08
79236;BME280;69062;47.460;18.812;2023-11-19T02:06:18;100741.53;;;0.84;82.37
79236;BME280;69062;47.460;18.812;2023-11-19T02:07:22;100745.88;;;0.85;82.50
79236;BME280;69062;47.460;18.812;2023-11-19T02:08:27;100745.00;;;0.78;82.43
79236;BME280;69062;47.460;18.812;2023-11-19T02:09:29;100741.53;;;0.69;82.46
79236;BME280;69062;47.460;18.812;2023-11-19T02:10:32;100742.41;;;0.65;82.55
79236;BME280;69062;47.460;18.812;2023-11-19T02:11:35;100738.94;;;0.64;82.75
79236;BME280;69062;47.460;18.812;2023-11-19T02:12:40;100740.66;;;0.64;82.35
79236;BME280;69062;47.460;18.812;2023-11-19T02:13:45;100740.69;;;0.59;82.39
79236;BME280;69062;47.460;18.812;2023-11-19T02:14:48;100747.63;;;0.59;82.33
79236;BME280;69062;47.460;18.812;2023-11-19T02:15:51;100745.00;;;0.55;82.62
79236;BME280;69062;47.460;18.812;2023-11-19T02:16:54;100745.00;;;0.52;82.98
79236;BME280;69062;47.460;18.812;2023-11-19T02:17:57;100735.47;;;0.58;82.69
79236;BME280;69062;47.460;18.812;2023-11-19T02:18:59;100733.75;;;0.61;82.73
79236;BME280;69062;47.460;18.812;2023-11-19T02:20:03;100733.75;;;0.63;82.90
79236;BME280;69062;47.460;18.812;2023-11-19T02:21:09;100726.81;;;0.60;82.92
79236;BME280;69062;47.460;18.812;2023-11-19T02:22:13;100729.41;;;0.65;82.30
79236;BME280;69062;47.460;18.812;2023-11-19T02:23:16;100726.81;;;0.69;82.64
79236;BME280;69062;47.460;18.812;2023-11-19T02:24:22;100723.34;;;0.70;82.62
79236;BME280;69062;47.460;18.812;2023-11-19T02:25:30;100715.56;;;0.73;82.34
79236;BME280;69062;47.460;18.812;2023-11-19T02:27:55;100719.91;;;0.73;82.63
79236;BME280;69062;47.460;18.812;2023-11-19T02:29:00;100714.69;;;0.76;82.01
79236;BME280;69062;47.460;18.812;2023-11-19T02:30:03;100723.34;;;0.86;81.52
79236;BME280;69062;47.460;18.812;2023-11-19T02:31:08;100723.34;;;0.78;81.29
79236;BME280;69062;47.460;18.812;2023-11-19T02:32:12;100718.13;;;0.72;81.46
79236;BME280;69062;47.460;18.812;2023-11-19T02:33:16;100732.91;;;0.65;81.50
79236;BME280;69062;47.460;18.812;2023-11-19T02:34:18;100732.00;;;0.62;81.36
79236;BME280;69062;47.460;18.812;2023-11-19T02:35:26;100731.16;;;0.58;81.64
79236;BME280;69062;47.460;18.812;2023-11-19T02:36:29;100733.72;;;0.57;81.48
79236;BME280;69062;47.460;18.812;2023-11-19T02:37:32;100734.59;;;0.49;81.18
79236;BME280;69062;47.460;18.812;2023-11-19T02:38:35;100738.94;;;0.52;81.36
79236;BME280;69062;47.460;18.812;2023-11-19T02:39:38;100742.38;;;0.49;81.48
79236;BME280;69062;47.460;18.812;2023-11-19T02:40:41;100739.78;;;0.49;81.58
79236;BME280;69062;47.460;18.812;2023-11-19T02:41:44;100736.34;;;0.47;81.55
79236;BME280;69062;47.460;18.812;2023-11-19T02:42:47;100732.88;;;0.41;81.97
79236;BME280;69062;47.460;18.812;2023-11-19T02:43:50;100727.66;;;0.36;82.16
79236;BME280;69062;47.460;18.812;2023-11-19T02:44:53;100725.94;;;0.38;82.04
79236;BME280;69062;47.460;18.812;2023-11-19T02:45:55;100725.97;;;0.44;82.06
79236;BME280;69062;47.460;18.812;2023-11-19T02:46:58;100721.63;;;0.46;81.70
79236;BME280;69062;47.460;18.812;2023-11-19T02:48:02;100716.41;;;0.46;82.07
79236;BME280;69062;47.460;18.812;2023-11-19T02:49:05;100711.22;;;0.40;82.45
79236;BME280;69062;47.460;18.812;2023-11-19T02:50:10;100718.16;;;0.47;82.52
79236;BME280;69062;47.460;18.812;2023-11-19T02:51:17;100707.78;;;0.44;82.41
79236;BME280;69062;47.460;18.812;2023-11-19T02:52:21;100705.16;;;0.43;82.61
79236;BME280;69062;47.460;18.812;2023-11-19T02:53:24;100706.88;;;0.48;82.35
79236;BME280;69062;47.460;18.812;2023-11-19T02:54:30;100712.97;;;0.53;82.35
79236;BME280;69062;47.460;18.812;2023-11-19T02:55:37;100709.50;;;0.61;82.56
79236;BME280;69062;47.460;18.812;2023-11-19T02:56:45;100716.41;;;0.65;82.02
79236;BME280;69062;47.460;18.812;2023-11-19T02:57:51;100708.63;;;0.62;81.74
79236;BME280;69062;47.460;18.812;2023-11-19T02:58:56;100711.25;;;0.59;81.64
79236;BME280;69062;47.460;18.812;2023-11-19T02:59:58;100704.31;;;0.53;81.59
79236;BME280;69062;47.460;18.812;2023-11-19T03:01:02;100706.91;;;0.47;81.61
79236;BME280;69062;47.460;18.812;2023-11-19T03:02:15;100708.63;;;0.49;81.76
79236;BME280;69062;47.460;18.812;2023-11-19T03:03:19;100708.63;;;0.52;82.10
79236;BME280;69062;47.460;18.812;2023-11-19T03:04:25;100707.75;;;0.57;82.20
79236;BME280;69062;47.460;18.812;2023-11-19T03:05:28;100706.88;;;0.58;82.14
79236;BME280;69062;47.460;18.812;2023-11-19T03:06:34;100711.22;;;0.57;81.87
79236;BME280;69062;47.460;18.812;2023-11-19T03:07:37;100705.16;;;0.60;81.49
79236;BME280;69062;47.460;18.812;2023-11-19T03:08:39;100701.69;;;0.61;81.27
79236;BME280;69062;47.460;18.812;2023-11-19T03:09:42;100695.66;;;0.59;81.02
79236;BME280;69062;47.460;18.812;2023-11-19T03:10:46;100696.50;;;0.47;80.99
79236;BME280;69062;47.460;18.812;2023-11-19T03:11:50;100688.72;;;0.44;81.83
79236;BME280;69062;47.460;18.812;2023-11-19T03:12:52;100691.28;;;0.41;82.25
79236;BME280;69062;47.460;18.812;2023-11-19T03:13:57;100686.09;;;0.39;82.59
79236;BME280;69062;47.460;18.812;2023-11-19T03:15:00;100683.50;;;0.39;82.62
79236;BME280;69062;47.460;18.812;2023-11-19T03:16:03;100683.53;;;0.38;82.50
79236;BME280;69062;47.460;18.812;2023-11-19T03:17:06;100686.09;;;0.35;82.59
79236;BME280;69062;47.460;18.812;2023-11-19T03:18:09;100685.25;;;0.33;82.89
79236;BME280;69062;47.460;18.812;2023-11-19T03:19:12;100689.56;;;0.32;83.04
79236;BME280;69062;47.460;18.812;2023-11-19T03:20:27;100693.03;;;0.33;82.71
79236;BME280;69062;47.460;18.812;2023-11-19T03:21:32;100700.81;;;0.34;82.55
79236;BME280;69062;47.460;18.812;2023-11-19T03:22:38;100694.78;;;0.38;82.76
79236;BME280;69062;47.460;18.812;2023-11-19T03:23:40;100695.63;;;0.40;83.08
79236;BME280;69062;47.460;18.812;2023-11-19T03:24:44;100691.31;;;0.39;82.83
79236;BME280;69062;47.460;18.812;2023-11-19T03:25:46;100693.91;;;0.38;82.63
79236;BME280;69062;47.460;18.812;2023-11-19T03:26:49;100688.69;;;0.36;82.84
79236;BME280;69062;47.460;18.812;2023-11-19T03:27:55;100680.91;;;0.33;82.83
79236;BME280;69062;47.460;18.812;2023-11-19T03:28:58;100679.19;;;0.29;82.95
79236;BME280;69062;47.460;18.812;2023-11-19T03:30:00;100685.22;;;0.28;82.94
79236;BME280;69062;47.460;18.812;2023-11-19T03:31:06;100686.13;;;0.30;82.92
79236;BME280;69062;47.460;18.812;2023-11-19T03:32:11;100691.31;;;0.32;83.13
79236;BME280;69062;47.460;18.812;2023-11-19T03:33:14;100689.56;;;0.34;83.20
79236;BME280;69062;47.460;18.812;2023-11-19T03:34:17;100688.69;;;0.33;82.99
79236;BME280;69062;47.460;18.812;2023-11-19T03:35:20;100681.78;;;0.32;83.14
79236;BME280;69062;47.460;18.812;2023-11-19T03:36:23;100675.72;;;0.33;83.04
79236;BME280;69062;47.460;18.812;2023-11-19T03:37:26;100666.19;;;0.34;83.13
79236;BME280;69062;47.460;18.812;2023-11-19T03:38:29;100667.03;;;0.36;83.23
79236;BME280;69062;47.460;18.812;2023-11-19T03:39:32;100671.38;;;0.46;82.93
79236;BME280;69062;47.460;18.812;2023-11-19T03:40:35;100668.78;;;0.53;82.79
79236;BME280;69062;47.460;18.812;2023-11-19T03:41:38;100664.47;;;0.52;81.97
79236;BME280;69062;47.460;18.812;2023-11-19T03:42:45;100668.78;;;0.55;81.60
79236;BME280;69062;47.460;18.812;2023-11-19T03:43:48;100654.94;;;0.51;80.85
79236;BME280;69062;47.460;18.812;2023-11-19T03:44:52;100657.50;;;0.56;81.13
79236;BME280;69062;47.460;18.812;2023-11-19T03:45:55;100656.66;;;0.57;81.00
79236;BME280;69062;47.460;18.812;2023-11-19T03:46:57;100650.59;;;0.58;80.99
79236;BME280;69062;47.460;18.812;2023-11-19T03:48:00;100648.84;;;0.57;81.13
79236;BME280;69062;47.460;18.812;2023-11-19T03:49:03;100647.97;;;0.50;81.69
79236;BME280;69062;47.460;18.812;2023-11-19T03:50:08;100637.63;;;0.44;81.61
79236;BME280;69062;47.460;18.812;2023-11-19T03:51:11;100631.53;;;0.42;81.61
79236;BME280;69062;47.460;18.812;2023-11-19T03:52:18;100637.59;;;0.41;82.11
79236;BME280;69062;47.460;18.812;2023-11-19T03:53:22;100630.69;;;0.39;82.37
79236;BME280;69062;47.460;18.812;2023-11-19T03:54:27;100636.75;;;0.42;82.33
79236;BME280;69062;47.460;18.812;2023-11-19T03:55:30;100632.41;;;0.47;82.29
79236;BME280;69062;47.460;18.812;2023-11-19T03:56:33;100634.16;;;0.51;82.12
79236;BME280;69062;47.460;18.812;2023-11-19T03:57:36;100630.69;;;0.54;81.90
79236;BME280;69062;47.460;18.812;2023-11-19T03:58:39;100632.41;;;0.46;82.10
79236;BME280;69062;47.460;18.812;2023-11-19T03:59:42;100633.28;;;0.45;82.16
79236;BME280;69062;47.460;18.812;2023-11-19T04:00:45;100634.13;;;0.48;82.01
79236;BME280;69062;47.460;18.812;2023-11-19T04:01:47;100627.22;;;0.53;82.19
79236;BME280;69062;47.460;18.812;2023-11-19T04:02:50;100635.00;;;0.60;81.99
79236;BME280;69062;47.460;18.812;2023-11-19T04:03:53;100626.31;;;0.58;81.62
79236;BME280;69062;47.460;18.812;2023-11-19T04:04:58;100625.47;;;0.59;81.38
79236;BME280;69062;47.460;18.812;2023-11-19T04:06:01;100618.53;;;0.62;81.32
79236;BME280;69062;47.460;18.812;2023-11-19T04:07:05;100614.19;;;0.63;81.17
79236;BME280;69062;47.460;18.812;2023-11-19T04:08:07;100615.94;;;0.62;80.88
79236;BME280;69062;47.460;18.812;2023-11-19T04:09:10;100607.25;;;0.63;80.73
79236;BME280;69062;47.460;18.812;2023-11-19T04:10:13;100605.56;;;0.59;80.62
79236;BME280;69062;47.460;18.812;2023-11-19T04:11:19;100598.63;;;0.49;81.20
79236;BME280;69062;47.460;18.812;2023-11-19T04:12:21;100603.00;;;0.44;81.61
79236;BME280;69062;47.460;18.812;2023-11-19T04:13:25;100601.25;;;0.38;82.01
79236;BME280;69062;47.460;18.812;2023-11-19T04:14:28;100602.09;;;0.40;81.85
79236;BME280;69062;47.460;18.812;2023-11-19T04:15:31;100605.56;;;0.41;82.02
79236;BME280;69062;47.460;18.812;2023-11-19T04:16:34;100606.44;;;0.41;82.05
79236;BME280;69062;47.460;18.812;2023-11-19T04:17:36;100608.16;;;0.42;81.54
79236;BME280;69062;47.460;18.812;2023-11-19T04:18:39;100615.97;;;0.44;81.44
79236;BME280;69062;47.460;18.812;2023-11-19T04:19:42;100614.25;;;0.31;80.82
79236;BME280;69062;47.460;18.812;2023-11-19T04:20:46;100618.59;;;0.30;80.77
79236;BME280;69062;47.460;18.812;2023-11-19T04:21:48;100611.66;;;0.29;80.76
79236;BME280;69062;47.460;18.812;2023-11-19T04:22:51;100611.66;;;0.23;80.97
79236;BME280;69062;47.460;18.812;2023-11-19T04:23:54;100614.25;;;0.18;81.39
79236;BME280;69062;47.460;18.812;2023-11-19T04:24:57;100608.16;;;0.21;81.20
79236;BME280;69062;47.460;18.812;2023-11-19T04:26:03;100603.00;;;0.22;81.58
79236;BME280;69062;47.460;18.812;2023-11-19T04:27:09;100604.72;;;0.17;81.62
79236;BME280;69062;47.460;18.812;2023-11-19T04:28:14;100598.66;;;0.17;81.56
79236;BME280;69062;47.460;18.812;2023-11-19T04:29:17;100598.66;;;0.23;81.84
79236;BME280;69062;47.460;18.812;2023-11-19T04:30:20;100595.19;;;0.27;81.88
79236;BME280;69062;47.460;18.812;2023-11-19T04:31:23;100590.88;;;0.32;81.19
79236;BME280;69062;47.460;18.812;2023-11-19T04:32:28;100602.13;;;0.30;81.01
79236;BME280;69062;47.460;18.812;2023-11-19T04:33:31;100596.06;;;0.23;80.78
79236;BME280;69062;47.460;18.812;2023-11-19T04:34:34;100596.94;;;0.17;80.82
79236;BME280;69062;47.460;18.812;2023-11-19T04:35:37;100593.47;;;0.11;81.47
79236;BME280;69062;47.460;18.812;2023-11-19T04:36:40;100593.47;;;0.05;81.74
79236;BME280;69062;47.460;18.812;2023-11-19T04:37:43;100596.06;;;0.05;82.04
79236;BME280;69062;47.460;18.812;2023-11-19T04:38:46;100600.38;;;0.04;81.92
79236;BME280;69062;47.460;18.812;2023-11-19T04:39:48;100608.16;;;0.07;81.90
79236;BME280;69062;47.460;18.812;2023-11-19T04:40:52;100615.97;;;0.10;81.93
79236;BME280;69062;47.460;18.812;2023-11-19T04:41:55;100615.97;;;0.13;81.98
79236;BME280;69062;47.460;18.812;2023-11-19T04:42:57;100615.13;;;0.17;81.60
79236;BME280;69062;47.460;18.812;2023-11-19T04:44:00;100617.72;;;0.23;81.11
79236;BME280;69062;47.460;18.812;2023-11-19T04:45:04;100623.78;;;0.24;81.07
79236;BME280;69062;47.460;18.812;2023-11-19T04:46:09;100628.09;;;0.26;81.03
79236;BME280;69062;47.460;18.812;2023-11-19T04:47:12;100628.94;;;0.27;81.15
79236;BME280;69062;47.460;18.812;2023-11-19T04:48:16;100629.84;;;0.31;81.14
79236;BME280;69062;47.460;18.812;2023-11-19T04:49:19;100640.22;;;0.32;81.06
79236;BME280;69062;47.460;18.812;2023-11-19T04:50:23;100635.88;;;0.33;80.43
79236;BME280;69062;47.460;18.812;2023-11-19T04:51:26;100638.47;;;0.36;80.55
79236;BME280;69062;47.460;18.812;2023-11-19T04:52:28;100637.59;;;0.35;79.91
79236;BME280;69062;47.460;18.812;2023-11-19T04:53:31;100636.72;;;0.36;80.03
79236;BME280;69062;47.460;18.812;2023-11-19T04:54:34;100628.97;;;0.33;80.24
79236;BME280;69062;47.460;18.812;2023-11-19T04:55:37;100635.88;;;0.33;80.89
79236;BME280;69062;47.460;18.812;2023-11-19T04:56:40;100635.03;;;0.29;81.02
79236;BME280;69062;47.460;18.812;2023-11-19T04:57:47;100632.41;;;0.26;81.30
79236;BME280;69062;47.460;18.812;2023-11-19T04:58:50;100637.63;;;0.32;81.28
79236;BME280;69062;47.460;18.812;2023-11-19T04:59:53;100628.09;;;0.34;81.39
79236;BME280;69062;47.460;18.812;2023-11-19T05:00:55;100622.88;;;0.34;81.47
79236;BME280;69062;47.460;18.812;2023-11-19T05:01:59;100618.59;;;0.30;81.90
79236;BME280;69062;47.460;18.812;2023-11-19T05:03:01;100610.78;;;0.25;82.05
79236;BME280;69062;47.460;18.812;2023-11-19T05:04:05;100613.38;;;0.24;82.08
79236;BME280;69062;47.460;18.812;2023-11-19T05:05:09;100605.59;;;0.25;82.00
79236;BME280;69062;47.460;18.812;2023-11-19T05:06:12;100615.97;;;0.35;81.98
79236;BME280;69062;47.460;18.812;2023-11-19T05:07:15;100615.13;;;0.37;81.58
79236;BME280;69062;47.460;18.812;2023-11-19T05:08:17;100612.47;;;0.43;81.49
79236;BME280;69062;47.460;18.812;2023-11-19T05:09:20;100610.75;;;0.41;81.42
79236;BME280;69062;47.460;18.812;2023-11-19T05:10:23;100602.97;;;0.35;81.74
79236;BME280;69062;47.460;18.812;2023-11-19T05:11:27;100597.81;;;0.30;82.12
79236;BME280;69062;47.460;18.812;2023-11-19T05:12:30;100602.97;;;0.33;82.04
79236;BME280;69062;47.460;18.812;2023-11-19T05:13:34;100605.59;;;0.38;82.40
79236;BME280;69062;47.460;18.812;2023-11-19T05:14:37;100609.03;;;0.43;82.12
79236;BME280;69062;47.460;18.812;2023-11-19T05:15:40;100608.19;;;0.45;81.81
79236;BME280;69062;47.460;18.812;2023-11-19T05:16:42;100625.47;;;0.43;82.29
79236;BME280;69062;47.460;18.812;2023-11-19T05:17:45;100627.22;;;0.46;82.20
79236;BME280;69062;47.460;18.812;2023-11-19T05:18:48;100628.06;;;0.43;81.47
79236;BME280;69062;47.460;18.812;2023-11-19T05:19:51;100623.75;;;0.39;81.67
79236;BME280;69062;47.460;18.812;2023-11-19T05:20:54;100624.63;;;0.40;82.06
79236;BME280;69062;47.460;18.812;2023-11-19T05:21:57;100613.34;;;0.48;81.66
79236;BME280;69062;47.460;18.812;2023-11-19T05:23:00;100614.22;;;0.53;81.70
79236;BME280;69062;47.460;18.812;2023-11-19T05:24:03;100610.75;;;0.61;81.29
79236;BME280;69062;47.460;18.812;2023-11-19T05:25:09;100604.69;;;0.60;81.69
79236;BME280;69062;47.460;18.812;2023-11-19T05:26:20;100605.53;;;0.67;81.00
79236;BME280;69062;47.460;18.812;2023-11-19T05:27:23;100614.22;;;0.66;81.02
79236;BME280;69062;47.460;18.812;2023-11-19T05:28:27;100604.66;;;0.63;80.77
79236;BME280;69062;47.460;18.812;2023-11-19T05:29:29;100603.81;;;0.57;80.90
79236;BME280;69062;47.460;18.812;2023-11-19T05:30:32;100609.00;;;0.50;80.86
79236;BME280;69062;47.460;18.812;2023-11-19T05:31:35;100601.22;;;0.49;81.43
79236;BME280;69062;47.460;18.812;2023-11-19T05:32:39;100597.78;;;0.51;81.19
79236;BME280;69062;47.460;18.812;2023-11-19T05:33:43;100609.88;;;0.43;81.18
79236;BME280;69062;47.460;18.812;2023-11-19T05:34:46;100608.16;;;0.41;81.60